Portada
METAR-TAF:

METAR-TAF

Aeroports :

Béchar, Algèria

latitud: 31-37N, longitud: 002-14W, altitud: 773 m

Observació

L'informe es va fer fa 38 minuts, a les 00:00 UTC
Vent 5 kt del Oest
Temperatura 31°C
Humitat 15%
Pressió 1013 hPa
Visibilitat 10 km o més
Escasses núvols a una alçada de 4000 ft

METAR: DAOR 160000Z 28005KT 9999 FEW040 31/01 Q1013

Hora: 01:38 (00:38 UTC)

Pronòstic

L'informe es va fer fa 1 hora i 38 minuts, a les 23:00 UTC
Pronòstic vàlid del 16 a les 00 UTC al 16 a les 09 UTC
Vent 2 kt amb direcció variable
Visibilitat 10 km o més
Escasses núvols a una alçada de 4000 ft

TAF: DAOR 152300Z 1600/1609 VRB02KT 9999 FEW040

Observacions i pronòstics meteorològics de més de 4000 aeroports (METAR i TAF).

Les estacions disponibles són els punts grocs i vermells al mapa.

Posi el ratolí al punt desitjat per veure el nom de l'estació.

Feu clic per veure les observacions i els pronòstics meteorològics.

Per canviar el mapa: feu clic els botons verds amb una creu de color negre per apropar; al botó verd amb un guió per allunyar la imatge; o en les fletxes verdes per a mapes adjacents.


METAR-TAF: